Time;durP1;ratioP1;P1;durP2;ratioP2;P2;SDS_P1;SDS_P2;PMS_P1;PMS_P2;Temp;Humidity;BMP_temperature;BMP_pressure;BME280_temperature;BME280_humidity;BME280_pressure;Samples;Min_cycle;Max_cycle;Signal;HPM_P1;HPM_P2
2021/06/19 00:00:48;;;;;;;2.23;1.17;;;28.00;50.00;;;;;;4979239;28;20205;-65
2021/06/19 00:03:19;;;;;;;1.33;1.23;;;28.00;50.00;;;;;;4979211;28;20202;-65
2021/06/19 00:05:48;;;;;;;2.50;1.33;;;28.00;50.00;;;;;;4968347;28;20663;-65
2021/06/19 00:08:23;;;;;;;1.43;1.33;;;28.00;49.90;;;;;;4974180;28;20193;-65
2021/06/19 00:10:59;;;;;;;1.40;1.23;;;28.00;49.80;;;;;;4981645;28;20204;-65
2021/06/19 00:13:31;;;;;;;1.37;1.27;;;28.00;50.00;;;;;;4985673;28;20223;-65
2021/06/19 00:16:01;;;;;;;1.20;1.10;;;28.00;49.90;;;;;;4980429;28;20204;-65
2021/06/19 00:18:37;;;;;;;1.40;1.30;;;28.00;49.80;;;;;;4988066;28;20582;-65
2021/06/19 00:21:09;;;;;;;1.27;1.17;;;28.00;49.70;;;;;;4983017;28;20192;-64
2021/06/19 00:23:40;;;;;;;1.37;1.27;;;28.00;49.70;;;;;;4985357;28;20209;-64
2021/06/19 00:26:11;;;;;;;1.33;1.03;;;28.00;49.70;;;;;;4983958;28;20199;-65
2021/06/19 00:28:44;;;;;;;1.07;1.07;;;28.00;49.60;;;;;;4985716;28;20651;-64
2021/06/19 00:31:16;;;;;;;1.20;1.17;;;28.00;49.60;;;;;;4986131;28;20212;-65
2021/06/19 00:33:47;;;;;;;1.40;1.30;;;28.00;49.70;;;;;;4984682;28;20243;-65
2021/06/19 00:36:17;;;;;;;1.10;0.93;;;28.00;49.60;;;;;;4981991;28;20545;-65
2021/06/19 00:38:59;;;;;;;1.00;1.00;;;28.00;49.80;;;;;;4983131;28;20314;-64
2021/06/19 00:41:28;;;;;;;1.20;1.10;;;28.00;49.80;;;;;;4989901;28;20506;-64
2021/06/19 00:44:03;;;;;;;1.10;1.10;;;28.00;49.80;;;;;;4981454;28;20274;-64
2021/06/19 00:46:35;;;;;;;1.27;1.03;;;28.00;49.70;;;;;;4980121;28;20251;-64
2021/06/19 00:49:07;;;;;;;1.20;1.10;;;28.00;49.70;;;;;;4979118;28;20239;-64
2021/06/19 00:51:41;;;;;;;1.03;1.00;;;28.00;49.60;;;;;;4973238;28;20231;-64
2021/06/19 00:54:23;;;;;;;1.27;1.17;;;28.00;49.70;;;;;;4981317;28;20279;-64
2021/06/19 00:56:53;;;;;;;1.10;1.00;;;28.00;49.90;;;;;;4979469;28;20228;-64
2021/06/19 00:59:21;;;;;;;1.07;1.03;;;28.00;49.90;;;;;;4981033;28;20220;-65
2021/06/19 01:01:56;;;;;;;0.90;0.90;;;28.00;49.90;;;;;;4985325;28;20196;-64
2021/06/19 01:04:24;;;;;;;1.97;1.13;;;28.00;49.20;;;;;;4984627;28;20208;-64
2021/06/19 01:06:54;;;;;;;1.53;1.00;;;28.00;49.20;;;;;;4981329;28;20221;-64
2021/06/19 01:09:26;;;;;;;0.93;0.93;;;28.00;49.60;;;;;;4972294;28;20506;-63
2021/06/19 01:11:55;;;;;;;1.23;1.17;;;28.00;49.00;;;;;;4990278;28;20216;-65
2021/06/19 01:14:23;;;;;;;2.00;1.23;;;28.00;49.80;;;;;;4975575;28;20207;-65
2021/06/19 01:16:57;;;;;;;1.23;1.10;;;28.00;49.20;;;;;;4979555;28;20216;-65
2021/06/19 01:19:30;;;;;;;1.10;1.10;;;28.00;49.80;;;;;;4980699;28;20220;-65
2021/06/19 01:22:01;;;;;;;1.17;1.00;;;28.00;49.40;;;;;;4981600;28;20262;-65
2021/06/19 01:24:33;;;;;;;1.20;1.10;;;28.00;49.50;;;;;;4987663;28;20220;-65
2021/06/19 01:27:00;;;;;;;1.40;1.07;;;28.00;49.50;;;;;;4967265;28;20599;-65
2021/06/19 01:29:30;;;;;;;1.10;1.00;;;28.00;49.50;;;;;;4968447;28;20217;-65
2021/06/19 01:32:01;;;;;;;1.17;1.10;;;28.00;48.70;;;;;;4984851;28;20199;-65
2021/06/19 01:34:29;;;;;;;1.10;1.00;;;28.10;48.80;;;;;;4999886;28;20220;-64
2021/06/19 01:36:58;;;;;;;1.20;1.10;;;28.00;48.80;;;;;;4988726;28;20267;-65
2021/06/19 01:39:28;;;;;;;2.30;1.00;;;28.00;48.70;;;;;;4985883;28;20221;-64
2021/06/19 01:42:00;;;;;;;1.27;1.17;;;28.00;49.50;;;;;;4990255;28;20751;-65
2021/06/19 01:44:33;;;;;;;1.10;1.00;;;28.00;49.10;;;;;;4983384;28;20205;-65
2021/06/19 01:47:06;;;;;;;1.23;1.13;;;28.10;48.70;;;;;;4986620;28;20201;-65
2021/06/19 01:49:36;;;;;;;1.43;1.07;;;28.00;49.40;;;;;;4969868;28;20204;-65
2021/06/19 01:52:05;;;;;;;1.30;1.10;;;28.00;48.60;;;;;;4989632;28;20204;-65
2021/06/19 01:54:40;;;;;;;1.47;1.10;;;28.00;48.80;;;;;;4981386;28;20528;-65
2021/06/19 01:57:10;;;;;;;1.57;1.23;;;28.00;49.20;;;;;;4982920;28;20228;-65
2021/06/19 01:59:42;;;;;;;1.10;1.00;;;28.00;48.90;;;;;;4982732;28;20241;-65
2021/06/19 02:02:12;;;;;;;1.30;1.30;;;28.00;48.50;;;;;;4982571;28;20209;-65
2021/06/19 02:04:44;;;;;;;1.00;1.00;;;28.00;48.60;;;;;;4983594;28;20272;-65
2021/06/19 02:07:16;;;;;;;1.10;1.00;;;28.00;48.60;;;;;;4981777;28;20192;-65
2021/06/19 02:09:43;;;;;;;1.20;1.10;;;28.10;48.70;;;;;;4985050;28;20557;-65
2021/06/19 02:12:13;;;;;;;1.90;1.20;;;28.00;48.70;;;;;;4990426;28;20205;-65
2021/06/19 02:14:43;;;;;;;1.67;1.07;;;28.10;48.60;;;;;;4984029;28;20212;-65
2021/06/19 02:17:13;;;;;;;1.33;1.23;;;28.00;48.60;;;;;;4984439;28;20200;-65
2021/06/19 02:19:45;;;;;;;1.30;1.20;;;28.00;48.60;;;;;;4978061;28;20232;-65
2021/06/19 02:22:14;;;;;;;1.23;1.13;;;28.00;48.80;;;;;;4986506;28;20220;-65
2021/06/19 02:24:49;;;;;;;1.20;1.10;;;28.00;48.80;;;;;;4987429;28;20201;-65
2021/06/19 02:27:20;;;;;;;1.20;1.10;;;28.00;48.80;;;;;;4980312;28;20707;-65
2021/06/19 02:29:51;;;;;;;1.40;1.30;;;28.00;48.60;;;;;;4992113;28;20702;-65
2021/06/19 02:32:21;;;;;;;1.43;1.20;;;28.00;48.80;;;;;;4982212;28;20236;-65
2021/06/19 02:34:52;;;;;;;1.60;1.10;;;28.00;49.10;;;;;;4988923;28;20199;-65
2021/06/19 02:37:21;;;;;;;1.33;1.23;;;28.00;49.40;;;;;;4983437;28;20240;-65
2021/06/19 02:39:52;;;;;;;1.87;1.03;;;28.10;48.80;;;;;;4982192;28;20228;-65
2021/06/19 02:42:22;;;;;;;1.13;1.13;;;28.00;48.80;;;;;;4984375;28;20201;-64
2021/06/19 02:44:53;;;;;;;1.37;1.10;;;28.00;48.80;;;;;;4986381;28;20226;-65
2021/06/19 02:47:23;;;;;;;1.10;1.00;;;28.00;48.70;;;;;;4980442;28;20293;-64
2021/06/19 02:49:54;;;;;;;1.33;1.23;;;28.00;48.70;;;;;;4977885;28;20200;-65
2021/06/19 02:52:24;;;;;;;1.43;1.23;;;28.00;48.70;;;;;;4984360;28;20201;-65
2021/06/19 02:54:55;;;;;;;0.90;0.90;;;28.00;48.70;;;;;;4986638;28;20266;-65
2021/06/19 02:57:26;;;;;;;1.20;1.10;;;28.00;49.40;;;;;;4984373;28;20205;-65
2021/06/19 02:59:56;;;;;;;3.53;1.07;;;28.00;48.80;;;;;;4979801;28;20248;-65
2021/06/19 03:02:26;;;;;;;1.30;1.07;;;28.00;48.80;;;;;;4988747;28;20211;-65
2021/06/19 03:04:54;;;;;;;1.60;1.30;;;28.00;48.80;;;;;;4984378;28;20256;-65
2021/06/19 03:07:27;;;;;;;1.00;0.90;;;28.00;48.80;;;;;;4983546;28;20193;-65
2021/06/19 03:09:59;;;;;;;1.20;1.10;;;28.00;48.80;;;;;;4982351;28;20239;-65
2021/06/19 03:12:31;;;;;;;1.53;1.20;;;28.00;48.80;;;;;;4984194;28;20211;-65
2021/06/19 03:15:00;;;;;;;2.43;1.23;;;28.00;48.80;;;;;;4983182;28;20212;-65
2021/06/19 03:17:31;;;;;;;1.47;1.37;;;28.00;48.80;;;;;;4990468;28;20209;-65
2021/06/19 03:20:08;;;;;;;1.23;1.10;;;28.00;48.80;;;;;;4985083;28;20230;-65
2021/06/19 03:22:58;;;;;;;1.53;1.43;;;28.00;48.80;;;;;;4973085;28;20607;-65
2021/06/19 03:25:37;;;;;;;1.20;1.10;;;27.90;48.90;;;;;;4986063;28;20595;-65
2021/06/19 03:28:07;;;;;;;1.33;1.23;;;28.00;48.90;;;;;;4984005;28;20212;-65
2021/06/19 03:30:42;;;;;;;1.13;1.10;;;28.00;48.90;;;;;;4988535;28;20243;-65
2021/06/19 03:33:16;;;;;;;3.47;1.30;;;28.00;48.90;;;;;;4981706;28;20247;-65
2021/06/19 03:35:45;;;;;;;2.30;1.30;;;28.00;48.90;;;;;;4991714;28;20653;-65
2021/06/19 03:38:13;;;;;;;2.33;1.00;;;27.90;48.90;;;;;;4966949;28;20204;-65
2021/06/19 03:40:45;;;;;;;1.10;1.00;;;28.00;48.90;;;;;;4986796;28;20239;-65
2021/06/19 03:43:15;;;;;;;2.87;1.30;;;28.00;48.90;;;;;;4979563;28;20205;-65
2021/06/19 03:45:46;;;;;;;1.67;1.10;;;28.00;48.90;;;;;;4989263;28;20651;-65
2021/06/19 03:48:17;;;;;;;1.10;0.80;;;27.90;48.80;;;;;;4984669;28;20213;-65
2021/06/19 03:50:47;;;;;;;1.30;1.20;;;27.90;48.90;;;;;;4988595;28;20200;-65
2021/06/19 03:53:19;;;;;;;1.30;1.20;;;27.90;48.90;;;;;;4982455;28;20214;-65
2021/06/19 03:55:48;;;;;;;1.17;1.00;;;27.90;48.90;;;;;;4984911;28;20204;-65
2021/06/19 03:58:18;;;;;;;1.60;1.10;;;27.90;48.90;;;;;;4986455;28;20200;-65
2021/06/19 04:00:50;;;;;;;1.40;1.20;;;27.90;48.90;;;;;;4984883;28;20212;-64
2021/06/19 04:03:22;;;;;;;1.77;1.17;;;27.90;48.90;;;;;;4987584;28;20200;-64
2021/06/19 04:05:52;;;;;;;2.20;1.27;;;27.90;48.90;;;;;;4983456;28;20220;-64
2021/06/19 04:08:21;;;;;;;2.37;1.10;;;27.90;48.90;;;;;;4974690;28;20193;-64
2021/06/19 04:10:51;;;;;;;1.20;1.10;;;27.90;48.90;;;;;;4981458;28;20201;-65
2021/06/19 04:13:23;;;;;;;1.40;1.27;;;27.90;48.90;;;;;;4990164;28;20204;-65
2021/06/19 04:15:56;;;;;;;1.83;0.90;;;27.90;48.90;;;;;;4981827;28;20201;-64
2021/06/19 04:18:25;;;;;;;1.50;0.90;;;27.90;48.90;;;;;;4986070;28;20263;-64
2021/06/19 04:20:55;;;;;;;1.20;1.10;;;27.90;48.90;;;;;;4968265;28;20661;-65
2021/06/19 04:23:24;;;;;;;1.30;1.20;;;27.90;48.90;;;;;;4982864;28;20240;-65
2021/06/19 04:26:05;;;;;;;1.10;1.00;;;27.90;48.90;;;;;;4979777;28;20193;-66
2021/06/19 04:28:36;;;;;;;1.20;1.10;;;27.90;48.80;;;;;;4986980;28;20292;-65
2021/06/19 04:31:07;;;;;;;0.97;0.97;;;27.90;48.80;;;;;;4980728;28;20267;-65
2021/06/19 04:33:36;;;;;;;1.10;1.00;;;27.90;48.80;;;;;;4975950;28;20339;-65
2021/06/19 04:36:08;;;;;;;1.70;1.23;;;27.90;48.80;;;;;;4982013;28;20779;-65
2021/06/19 04:38:39;;;;;;;8.17;1.30;;;27.90;48.80;;;;;;4983522;28;20215;-63
2021/06/19 04:41:21;;;;;;;1.73;1.20;;;27.90;49.00;;;;;;4975135;28;20670;-65
2021/06/19 04:46:35;;;;;;;1.37;1.27;;;27.80;48.60;;;;;;4980684;28;20192;-63
2021/06/19 04:49:06;;;;;;;1.97;1.47;;;27.80;49.10;;;;;;4981475;28;20201;-63
2021/06/19 04:51:43;;;;;;;5.13;1.47;;;27.70;50.10;;;;;;4974292;28;20196;-61
2021/06/19 04:54:20;;;;;;;1.50;1.40;;;27.70;49.80;;;;;;4985871;28;20648;-62
2021/06/19 04:56:52;;;;;;;3.17;1.67;;;27.60;50.10;;;;;;4987105;28;20778;-61
2021/06/19 04:59:20;;;;;;;3.63;1.60;;;27.60;50.50;;;;;;4981827;28;20216;-61
2021/06/19 05:01:49;;;;;;;4.73;1.40;;;27.50;50.80;;;;;;4988962;28;20201;-63
2021/06/19 05:04:19;;;;;;;3.40;1.50;;;27.50;51.20;;;;;;4996634;28;20234;-64
2021/06/19 05:06:47;;;;;;;3.47;1.87;;;27.50;51.20;;;;;;4987651;28;20213;-64
2021/06/19 05:09:15;;;;;;;2.27;1.43;;;27.50;51.50;;;;;;4994722;28;20204;-64
2021/06/19 05:11:44;;;;;;;2.40;1.40;;;27.50;51.60;;;;;;4984849;28;20205;-64
2021/06/19 05:14:15;;;;;;;1.60;1.50;;;27.50;51.60;;;;;;4992017;28;20232;-64
2021/06/19 05:16:43;;;;;;;1.67;1.57;;;27.40;51.50;;;;;;4985803;28;20208;-63
2021/06/19 05:19:14;;;;;;;1.90;1.70;;;27.40;51.50;;;;;;4986185;28;20192;-63
2021/06/19 05:21:44;;;;;;;2.03;1.60;;;27.40;51.40;;;;;;4983152;28;20201;-66
2021/06/19 05:24:16;;;;;;;3.27;1.50;;;27.40;51.30;;;;;;4989351;28;20247;-66
2021/06/19 05:26:48;;;;;;;3.37;1.80;;;27.40;51.30;;;;;;4984347;28;20629;-63
2021/06/19 05:29:19;;;;;;;2.40;1.60;;;27.40;51.90;;;;;;4992782;28;20218;-63
2021/06/19 05:31:47;;;;;;;1.70;1.60;;;27.30;51.50;;;;;;4984885;28;20196;-65
2021/06/19 05:34:17;;;;;;;5.10;2.10;;;27.30;51.60;;;;;;4973611;28;20737;-65
2021/06/19 05:36:49;;;;;;;5.43;2.73;;;27.30;52.00;;;;;;4979660;28;20590;-64
2021/06/19 05:39:16;;;;;;;3.70;2.00;;;27.30;51.60;;;;;;4984726;28;20203;-64
2021/06/19 05:41:44;;;;;;;5.00;1.90;;;27.20;51.60;;;;;;4983911;28;20200;-64
2021/06/19 05:44:15;;;;;;;1.70;1.60;;;27.30;51.90;;;;;;4981476;28;20674;-64
2021/06/19 05:46:45;;;;;;;2.60;1.90;;;27.20;51.50;;;;;;4980874;28;20251;-63
2021/06/19 05:49:13;;;;;;;4.90;2.10;;;27.20;51.50;;;;;;4977642;28;20645;-64
2021/06/19 05:51:41;;;;;;;70.07;20.17;;;27.20;53.40;;;;;;4979528;28;20229;-66
2021/06/19 05:54:13;;;;;;;38.37;12.73;;;27.20;53.30;;;;;;4977043;28;20208;-65
2021/06/19 05:56:44;;;;;;;20.63;4.83;;;27.30;53.90;;;;;;4993672;28;20673;-65
2021/06/19 05:59:13;;;;;;;9.50;4.80;;;27.20;53.40;;;;;;4977974;28;20220;-65
2021/06/19 06:01:44;;;;;;;5.20;2.43;;;27.20;52.80;;;;;;4979131;28;20681;-65
2021/06/19 06:04:16;;;;;;;2.93;1.93;;;27.30;52.80;;;;;;4980377;28;20344;-64
2021/06/19 06:06:48;;;;;;;2.20;2.00;;;27.20;52.70;;;;;;4980917;28;20215;-63
2021/06/19 06:09:17;;;;;;;4.82;2.30;;;27.20;52.60;;;;;;4977887;28;20426;-64
2021/06/19 06:11:45;;;;;;;6.50;2.00;;;27.20;52.60;;;;;;4983749;28;20195;-65
2021/06/19 06:14:13;;;;;;;1.80;1.70;;;27.20;52.70;;;;;;4981394;28;20201;-65
2021/06/19 06:16:43;;;;;;;3.10;1.97;;;27.30;52.60;;;;;;4993709;28;20213;-65
2021/06/19 06:19:18;;;;;;;3.97;2.20;;;27.30;52.40;;;;;;4987433;28;20199;-65
2021/06/19 06:21:50;;;;;;;1.80;1.70;;;27.30;52.20;;;;;;4985044;28;20513;-65
2021/06/19 06:24:18;;;;;;;2.20;2.00;;;27.30;52.00;;;;;;4988048;28;20283;-64
2021/06/19 06:26:50;;;;;;;9.23;1.90;;;27.30;52.00;;;;;;4980944;28;20235;-64
2021/06/19 06:29:23;;;;;;;4.90;1.93;;;27.40;52.20;;;;;;4990219;28;20192;-63
2021/06/19 06:31:54;;;;;;;2.00;1.90;;;27.40;52.20;;;;;;4982253;28;20200;-62
2021/06/19 06:34:26;;;;;;;2.40;1.93;;;27.40;52.20;;;;;;4990418;28;20294;-62
2021/06/19 06:36:55;;;;;;;2.80;2.00;;;27.40;52.10;;;;;;4976105;28;20286;-62
2021/06/19 06:39:23;;;;;;;2.10;1.90;;;27.40;51.90;;;;;;4986847;28;20197;-62
2021/06/19 06:42:04;;;;;;;1.90;1.70;;;27.40;51.90;;;;;;4985568;28;20214;-65
2021/06/19 06:44:35;;;;;;;2.10;1.90;;;27.40;51.90;;;;;;4995640;28;20207;-65
2021/06/19 06:47:07;;;;;;;2.10;1.90;;;27.40;51.80;;;;;;4981244;28;20606;-64
2021/06/19 06:49:50;;;;;;;1.90;1.80;;;27.40;51.70;;;;;;4982263;28;20299;-64
2021/06/19 06:52:21;;;;;;;2.20;2.00;;;27.40;51.70;;;;;;4983904;28;20201;-65
2021/06/19 06:54:50;;;;;;;3.00;1.90;;;27.50;51.60;;;;;;4977002;28;20225;-65
2021/06/19 06:57:17;;;;;;;2.00;1.90;;;27.50;51.60;;;;;;4983201;28;20204;-63
2021/06/19 06:59:48;;;;;;;1.70;1.60;;;27.50;51.50;;;;;;4980500;28;20220;-63
2021/06/19 07:02:17;;;;;;;1.77;1.67;;;27.50;51.40;;;;;;4983592;28;20212;-62
2021/06/19 07:04:44;;;;;;;3.73;1.70;;;27.60;51.40;;;;;;4979865;28;20629;-62
2021/06/19 07:07:13;;;;;;;1.90;1.80;;;27.60;51.30;;;;;;4982998;28;20192;-64
2021/06/19 07:09:43;;;;;;;2.10;2.00;;;27.60;51.30;;;;;;4978660;28;20204;-64
2021/06/19 07:12:14;;;;;;;2.00;1.90;;;27.60;51.20;;;;;;4982223;28;20193;-63
2021/06/19 07:14:46;;;;;;;2.03;1.83;;;27.60;51.20;;;;;;4976644;28;20556;-62
2021/06/19 07:17:14;;;;;;;2.80;1.87;;;27.70;51.20;;;;;;4979547;28;20280;-63
2021/06/19 07:19:43;;;;;;;2.53;1.90;;;27.70;51.20;;;;;;4977051;28;20592;-64
2021/06/19 07:22:15;;;;;;;5.40;1.87;;;27.70;51.10;;;;;;4982094;28;20212;-72
2021/06/19 07:24:43;;;;;;;1.77;1.67;;;27.70;51.30;;;;;;4971429;28;20258;-71
2021/06/19 07:27:11;;;;;;;2.23;2.03;;;27.80;51.50;;;;;;4980544;28;20539;-70
2021/06/19 07:29:41;;;;;;;1.80;1.70;;;27.80;51.30;;;;;;4978962;28;20213;-70
2021/06/19 07:32:10;;;;;;;2.20;1.90;;;27.90;51.20;;;;;;4983839;28;20214;-69
2021/06/19 07:34:38;;;;;;;3.60;1.73;;;28.00;51.20;;;;;;4982093;28;20250;-67
2021/06/19 07:37:10;;;;;;;3.87;1.70;;;28.00;51.10;;;;;;4978892;28;20228;-69
2021/06/19 07:39:41;;;;;;;1.77;1.67;;;28.10;50.90;;;;;;4982238;28;20196;-69
2021/06/19 07:42:09;;;;;;;2.23;1.80;;;28.20;50.80;;;;;;4985609;28;20564;-70
2021/06/19 07:44:39;;;;;;;2.77;1.90;;;28.20;50.70;;;;;;4979902;28;20203;-67
2021/06/19 07:47:09;;;;;;;4.20;1.57;;;28.30;50.50;;;;;;4976478;28;20203;-66
2021/06/19 07:49:40;;;;;;;3.23;2.33;;;28.30;50.40;;;;;;4981428;28;20278;-65
2021/06/19 07:52:09;;;;;;;2.13;2.00;;;28.40;50.20;;;;;;4974001;28;20213;-66
2021/06/19 07:54:38;;;;;;;2.60;2.40;;;28.40;50.10;;;;;;4975606;28;20216;-67
2021/06/19 07:57:08;;;;;;;2.73;2.17;;;28.40;50.10;;;;;;4979758;28;20209;-67
2021/06/19 07:59:37;;;;;;;2.20;2.10;;;28.50;50.00;;;;;;4983274;28;20205;-69
2021/06/19 08:02:08;;;;;;;5.83;2.10;;;28.50;49.90;;;;;;4978836;28;20245;-68
2021/06/19 08:04:38;;;;;;;3.47;1.90;;;28.60;50.00;;;;;;4982204;28;20215;-67
2021/06/19 08:07:05;;;;;;;3.43;1.80;;;28.50;50.00;;;;;;4980136;28;20386;-69
2021/06/19 08:09:35;;;;;;;1.87;1.77;;;28.50;49.90;;;;;;4962629;28;20219;-69
2021/06/19 08:12:06;;;;;;;1.90;1.70;;;28.50;49.90;;;;;;4980198;28;20224;-68
2021/06/19 08:14:34;;;;;;;2.77;2.10;;;28.50;50.20;;;;;;4982958;28;20216;-66
2021/06/19 08:17:14;;;;;;;2.70;1.90;;;28.60;50.40;;;;;;4976433;28;20205;-66
2021/06/19 08:19:46;;;;;;;2.10;1.90;;;28.60;50.30;;;;;;4985389;28;20193;-65
2021/06/19 08:22:18;;;;;;;2.83;1.70;;;28.60;50.20;;;;;;4979438;28;20217;-63
2021/06/19 08:24:48;;;;;;;2.23;2.03;;;28.70;50.00;;;;;;4981373;28;20188;-64
2021/06/19 08:27:22;;;;;;;1.80;1.70;;;28.70;50.10;;;;;;4980225;28;20211;-65
2021/06/19 08:29:55;;;;;;;2.50;2.30;;;28.70;49.60;;;;;;4983319;28;20200;-62
2021/06/19 08:32:24;;;;;;;5.67;3.20;;;28.70;49.40;;;;;;4979674;28;20204;-64
2021/06/19 08:34:54;;;;;;;7.60;3.13;;;28.70;49.70;;;;;;4977893;28;20220;-64
2021/06/19 08:37:26;;;;;;;6.10;2.97;;;28.70;50.50;;;;;;4978481;28;20212;-64
2021/06/19 08:39:57;;;;;;;3.43;2.50;;;28.80;50.50;;;;;;4979475;28;20207;-64
2021/06/19 08:42:38;;;;;;;2.73;2.40;;;28.80;50.30;;;;;;4977941;28;20209;-63
2021/06/19 08:45:09;;;;;;;4.63;3.03;;;28.80;50.30;;;;;;4979415;28;20213;-65
2021/06/19 08:47:40;;;;;;;6.23;3.07;;;28.90;50.20;;;;;;4979683;28;20196;-66
2021/06/19 08:50:13;;;;;;;4.67;2.97;;;28.90;50.40;;;;;;4981513;28;20208;-63
2021/06/19 08:52:45;;;;;;;5.30;3.00;;;28.90;50.40;;;;;;4981875;28;20744;-64
2021/06/19 08:55:15;;;;;;;4.40;2.80;;;28.90;50.40;;;;;;4973028;28;20398;-65
2021/06/19 08:57:47;;;;;;;5.17;2.97;;;29.00;50.40;;;;;;4982410;28;20204;-65
2021/06/19 09:00:20;;;;;;;6.27;3.17;;;29.00;50.40;;;;;;4981917;28;20212;-65
2021/06/19 09:02:51;;;;;;;4.30;2.90;;;29.00;50.40;;;;;;4966677;28;20216;-65
2021/06/19 09:05:30;;;;;;;4.13;2.80;;;29.00;50.30;;;;;;4974984;28;20340;-65
2021/06/19 09:08:18;;;;;;;5.70;3.20;;;29.00;51.00;;;;;;4985140;28;20220;-64
2021/06/19 09:10:48;;;;;;;6.77;3.30;;;29.00;50.30;;;;;;4976541;28;20200;-63
2021/06/19 09:13:21;;;;;;;5.50;2.97;;;29.10;50.40;;;;;;4983938;28;20227;-63
2021/06/19 09:15:56;;;;;;;4.50;3.27;;;29.10;50.40;;;;;;4976226;28;20207;-63
2021/06/19 09:18:28;;;;;;;4.17;2.63;;;29.10;50.50;;;;;;4979686;28;20800;-63
2021/06/19 09:21:03;;;;;;;3.00;2.70;;;29.00;50.40;;;;;;4960298;28;20236;-65
2021/06/19 09:23:31;;;;;;;4.07;2.90;;;29.10;50.60;;;;;;4981813;28;20215;-65
2021/06/19 09:26:26;;;;;;;6.33;2.97;;;29.00;50.50;;;;;;4971628;28;20254;-66
2021/06/19 09:29:04;;;;;;;4.77;2.80;;;29.10;50.50;;;;;;4973189;28;20208;-64
2021/06/19 09:31:54;;;;;;;5.27;2.50;;;29.10;50.70;;;;;;4978631;28;20204;-64
2021/06/19 09:34:46;;;;;;;3.10;2.23;;;29.10;50.60;;;;;;4977865;28;20236;-64
2021/06/19 09:37:14;;;;;;;3.73;2.40;;;29.10;50.60;;;;;;4974387;28;20230;-66
2021/06/19 09:39:44;;;;;;;2.97;2.77;;;29.10;50.70;;;;;;4976662;28;20235;-66
2021/06/19 09:42:18;;;;;;;3.03;2.40;;;29.10;50.70;;;;;;4980170;28;20215;-64
2021/06/19 09:44:51;;;;;;;4.90;2.50;;;29.20;50.70;;;;;;4973599;28;20219;-64
2021/06/19 09:47:21;;;;;;;2.60;2.40;;;29.10;50.60;;;;;;4976408;28;20207;-67
2021/06/19 09:50:05;;;;;;;3.67;2.37;;;29.10;50.70;;;;;;4966402;28;20884;-67
2021/06/19 09:52:34;;;;;;;3.00;2.10;;;29.20;50.70;;;;;;4982313;28;20197;-66
2021/06/19 09:55:14;;;;;;;2.40;2.20;;;29.20;50.70;;;;;;4975621;28;20417;-65
2021/06/19 09:57:52;;;;;;;3.17;2.17;;;29.20;50.80;;;;;;4985271;28;20493;-65
2021/06/19 10:00:26;;;;;;;2.20;2.00;;;29.20;50.70;;;;;;4977414;28;20538;-64
2021/06/19 10:03:04;;;;;;;2.43;2.20;;;29.20;50.70;;;;;;4974132;28;20224;-64
2021/06/19 10:05:34;;;;;;;2.87;2.17;;;29.20;50.70;;;;;;4981112;28;20211;-64
2021/06/19 10:08:20;;;;;;;1.77;1.67;;;29.20;50.70;;;;;;4976122;28;20351;-64
2021/06/19 10:10:48;;;;;;;2.57;1.97;;;29.20;50.70;;;;;;4980965;28;20200;-64
2021/06/19 10:13:17;;;;;;;2.93;2.10;;;29.20;50.70;;;;;;4979169;28;20220;-64
2021/06/19 10:15:47;;;;;;;1.90;1.80;;;29.20;51.30;;;;;;4978121;28;20200;-64
2021/06/19 10:18:18;;;;;;;1.87;1.70;;;29.30;50.70;;;;;;4977616;28;20239;-64
2021/06/19 10:20:48;;;;;;;2.00;1.80;;;29.30;50.80;;;;;;4974309;28;20327;-66
2021/06/19 10:23:22;;;;;;;2.17;1.80;;;29.30;50.80;;;;;;4979594;28;20196;-66
2021/06/19 10:25:54;;;;;;;2.13;1.73;;;29.30;50.80;;;;;;4970554;28;20222;-64
2021/06/19 10:28:28;;;;;;;2.13;1.93;;;29.30;50.80;;;;;;4982972;28;20192;-64
2021/06/19 10:31:18;;;;;;;2.03;1.70;;;29.30;50.80;;;;;;4971518;28;20205;-66
2021/06/19 10:33:48;;;;;;;2.30;1.80;;;29.30;50.80;;;;;;4975385;28;20247;-65
2021/06/19 10:36:18;;;;;;;1.73;1.47;;;29.40;50.80;;;;;;4982199;28;20216;-63
2021/06/19 10:38:57;;;;;;;2.03;1.83;;;29.40;50.90;;;;;;4977365;28;20224;-64
2021/06/19 10:41:47;;;;;;;1.80;1.70;;;29.40;50.90;;;;;;4974347;28;20228;-64
2021/06/19 10:44:46;;;;;;;2.30;1.90;;;29.40;50.90;;;;;;4982627;28;20306;-64
2021/06/19 10:47:25;;;;;;;2.07;1.87;;;29.40;50.90;;;;;;4974828;28;20311;-64
2021/06/19 10:49:58;;;;;;;1.90;1.80;;;29.40;50.90;;;;;;4977035;28;20219;-64
2021/06/19 10:52:38;;;;;;;1.57;1.40;;;29.40;50.90;;;;;;4982094;28;20204;-66
2021/06/19 10:55:09;;;;;;;2.27;1.40;;;29.50;51.00;;;;;;4976138;28;20199;-64
2021/06/19 10:57:57;;;;;;;1.50;1.40;;;29.50;51.00;;;;;;4976642;28;20225;-64
2021/06/19 11:00:48;;;;;;;1.50;1.40;;;29.50;50.90;;;;;;4971818;28;20220;-64
2021/06/19 11:03:38;;;;;;;1.87;1.77;;;29.50;51.00;;;;;;4975860;28;20734;-64
2021/06/19 11:06:26;;;;;;;1.87;1.53;;;29.60;51.00;;;;;;4976876;28;20197;-65
2021/06/19 11:09:20;;;;;;;1.70;1.60;;;29.60;50.90;;;;;;4972669;28;20201;-64
2021/06/19 11:12:02;;;;;;;3.72;1.80;;;29.60;50.90;;;;;;4977463;28;20430;-65
2021/06/19 11:14:50;;;;;;;1.70;1.60;;;29.60;50.50;;;;;;4976105;28;20228;-67
2021/06/19 11:17:25;;;;;;;1.80;1.70;;;29.20;44.20;;;;;;4979046;28;20204;-67
2021/06/19 11:20:05;;;;;;;1.60;1.50;;;28.70;42.30;;;;;;4980620;28;20522;-66
2021/06/19 11:22:58;;;;;;;1.60;1.50;;;28.30;41.70;;;;;;4980913;28;20224;-66
2021/06/19 11:25:40;;;;;;;2.30;1.60;;;28.00;44.50;;;;;;4987563;28;20226;-69
2021/06/19 11:28:28;;;;;;;3.57;1.50;;;27.90;44.50;;;;;;4977872;28;20693;-69
2021/06/19 11:31:04;;;;;;;3.03;1.60;;;27.70;43.90;;;;;;4977642;28;20215;-67
2021/06/19 11:33:38;;;;;;;1.60;1.50;;;27.50;43.40;;;;;;4979113;28;20585;-68
2021/06/19 11:36:25;;;;;;;2.20;2.00;;;27.40;43.90;;;;;;4978410;28;20805;-67
2021/06/19 11:39:07;;;;;;;3.10;2.00;;;27.40;51.60;;;;;;4991985;28;20219;-66
2021/06/19 11:41:41;;;;;;;2.03;1.70;;;27.50;52.20;;;;;;4974498;28;20242;-68
2021/06/19 11:44:15;;;;;;;2.23;1.77;;;27.40;47.00;;;;;;4985615;28;20200;-67
2021/06/19 11:46:55;;;;;;;2.50;2.30;;;27.30;45.50;;;;;;4960349;28;20363;-66
2021/06/19 11:49:35;;;;;;;2.83;2.10;;;27.20;44.90;;;;;;4991374;28;20203;-68
2021/06/19 11:52:05;;;;;;;2.43;2.10;;;27.20;49.50;;;;;;4962155;28;20223;-69
2021/06/19 11:54:41;;;;;;;1.87;1.77;;;27.30;54.00;;;;;;4980798;28;20215;-65
2021/06/19 11:57:11;;;;;;;6.97;2.10;;;27.30;50.20;;;;;;4965387;28;20216;-66
2021/06/19 11:59:40;;;;;;;2.10;1.90;;;27.20;46.60;;;;;;4986120;28;20221;-65
2021/06/19 12:02:12;;;;;;;2.40;1.50;;;27.10;45.50;;;;;;4974328;28;20741;-65
2021/06/19 12:04:42;;;;;;;1.97;1.87;;;27.10;45.10;;;;;;4978688;28;20956;-66
2021/06/19 12:07:13;;;;;;;3.63;1.87;;;26.90;44.50;;;;;;4980235;28;20220;-67
2021/06/19 12:09:41;;;;;;;3.20;1.87;;;26.90;44.40;;;;;;4982238;28;20204;-67
2021/06/19 12:12:11;;;;;;;2.27;1.83;;;26.80;44.00;;;;;;4979469;28;20209;-65
2021/06/19 12:14:47;;;;;;;1.93;1.83;;;26.70;43.80;;;;;;4979654;28;20275;-67
2021/06/19 12:17:14;;;;;;;2.97;1.80;;;26.70;43.70;;;;;;4973959;28;20197;-66
2021/06/19 12:19:44;;;;;;;2.57;1.73;;;26.50;43.40;;;;;;4972128;28;20219;-73
2021/06/19 12:22:17;;;;;;;4.10;1.80;;;26.50;43.70;;;;;;4983067;28;20240;-70
2021/06/19 12:24:50;;;;;;;5.03;2.10;;;26.30;43.60;;;;;;4974181;28;20200;-71
2021/06/19 12:27:22;;;;;;;3.03;1.83;;;26.30;43.50;;;;;;4971654;28;20251;-71
2021/06/19 12:30:01;;;;;;;4.73;2.10;;;26.20;43.60;;;;;;4971787;28;20614;-67
2021/06/19 12:32:38;;;;;;;2.60;1.97;;;26.10;43.40;;;;;;4981385;28;20274;-67
2021/06/19 12:35:17;;;;;;;1.93;1.80;;;26.00;43.20;;;;;;4972835;28;20290;-66
2021/06/19 12:37:53;;;;;;;2.13;1.93;;;26.00;43.70;;;;;;4982303;28;20261;-67
2021/06/19 12:40:31;;;;;;;2.03;1.90;;;25.90;43.20;;;;;;4977077;28;20204;-66
2021/06/19 12:43:00;;;;;;;2.23;2.00;;;25.90;43.10;;;;;;4966063;28;20887;-67
2021/06/19 12:45:43;;;;;;;2.23;2.03;;;25.90;43.20;;;;;;4978907;28;20263;-66
2021/06/19 12:48:39;;;;;;;2.27;2.00;;;25.90;43.30;;;;;;4982340;28;20196;-66
2021/06/19 12:51:20;;;;;;;1.90;1.80;;;25.80;43.20;;;;;;4975198;28;20219;-66
2021/06/19 12:53:49;;;;;;;5.30;2.00;;;25.80;43.10;;;;;;4980713;28;20305;-66
2021/06/19 12:56:18;;;;;;;2.17;1.97;;;25.70;43.10;;;;;;4981998;28;20181;-66
2021/06/19 12:58:47;;;;;;;2.20;2.07;;;25.70;43.60;;;;;;4974720;28;20598;-66
2021/06/19 13:01:28;;;;;;;2.30;2.10;;;25.70;43.10;;;;;;4976676;28;20200;-66
2021/06/19 13:04:07;;;;;;;2.40;2.20;;;25.60;42.90;;;;;;4972285;28;20212;-64
2021/06/19 13:06:43;;;;;;;3.03;2.30;;;25.60;42.90;;;;;;4982069;28;20200;-65
2021/06/19 13:09:16;;;;;;;2.37;2.00;;;25.50;42.60;;;;;;4972826;28;20204;-65
2021/06/19 13:11:46;;;;;;;2.30;2.10;;;25.50;42.70;;;;;;4975475;28;20672;-66
2021/06/19 13:14:27;;;;;;;2.23;2.13;;;25.40;42.80;;;;;;4975960;28;20909;-66
2021/06/19 13:16:56;;;;;;;2.20;2.10;;;25.30;43.00;;;;;;4970485;28;20224;-64